createdAt,value
2019-05-14T00:02:14.160Z,8.39
2019-05-14T00:04:47.666Z,8.44
2019-05-14T00:07:22.453Z,8.50
2019-05-14T00:10:01.710Z,8.44
2019-05-14T00:12:33.616Z,8.37
2019-05-14T00:15:04.440Z,8.37
2019-05-14T00:17:34.449Z,8.34
2019-05-14T00:20:09.369Z,8.19
2019-05-14T00:22:35.996Z,8.14
2019-05-14T00:25:07.038Z,8.18
2019-05-14T00:27:37.673Z,8.18
2019-05-14T00:30:07.817Z,8.15
2019-05-14T00:32:37.487Z,8.07
2019-05-14T00:35:08.061Z,8.07
2019-05-14T00:37:37.816Z,8.05
2019-05-14T00:40:08.780Z,8.02
2019-05-14T00:42:42.951Z,8.09
2019-05-14T00:45:14.383Z,8.09
2019-05-14T00:47:45.938Z,8.07
2019-05-14T00:50:18.377Z,7.94
2019-05-14T00:52:55.454Z,7.94
2019-05-14T00:55:25.510Z,7.96
2019-05-14T00:57:55.388Z,7.97
2019-05-14T01:00:25.935Z,7.91
2019-05-14T01:02:57.246Z,7.80
2019-05-14T01:05:28.347Z,7.77
2019-05-14T01:07:58.236Z,7.77
2019-05-14T01:10:28.268Z,7.76
2019-05-14T01:12:58.159Z,7.68
2019-05-14T01:15:28.972Z,7.64
2019-05-14T01:18:02.193Z,7.64
2019-05-14T01:20:32.306Z,7.62
2019-05-14T01:23:03.733Z,7.58
2019-05-14T01:25:39.529Z,7.62
2019-05-14T01:28:11.790Z,7.62
2019-05-14T01:30:42.283Z,7.64
2019-05-14T01:33:12.275Z,7.60
2019-05-14T01:35:42.145Z,7.60
2019-05-14T01:38:14.134Z,7.60
2019-05-14T01:40:43.911Z,7.60
2019-05-14T01:43:16.043Z,7.48
2019-05-14T01:45:46.059Z,7.48
2019-05-14T01:48:16.060Z,7.48
2019-05-14T01:50:46.094Z,7.43
2019-05-14T01:53:16.174Z,7.44
2019-05-14T01:55:47.580Z,7.39
2019-05-14T01:58:22.065Z,7.40
2019-05-14T02:00:52.394Z,7.43
2019-05-14T02:03:22.986Z,7.36
2019-05-14T02:05:54.982Z,7.29
2019-05-14T02:08:24.690Z,7.23
2019-05-14T02:10:54.634Z,7.21
2019-05-14T02:13:24.762Z,7.20
2019-05-14T02:15:55.459Z,7.16
2019-05-14T02:18:25.486Z,7.16
2019-05-14T02:20:56.970Z,7.17
2019-05-14T02:23:26.627Z,7.09
2019-05-14T02:25:57.516Z,7.09
2019-05-14T02:28:27.481Z,7.11
2019-05-14T02:31:02.767Z,7.10
2019-05-14T02:33:30.557Z,7.08
2019-05-14T02:36:00.548Z,7.07
2019-05-14T02:38:30.817Z,7.01
2019-05-14T02:41:10.007Z,6.96
2019-05-14T02:43:41.293Z,6.96
2019-05-14T02:46:16.738Z,6.95
2019-05-14T02:48:42.440Z,6.90
2019-05-14T02:51:12.012Z,6.86
2019-05-14T02:53:42.562Z,6.82
2019-05-14T02:56:12.688Z,6.83
2019-05-14T02:58:42.715Z,6.83
2019-05-14T03:01:12.385Z,6.78
2019-05-14T03:03:42.502Z,6.83
2019-05-14T03:06:14.265Z,6.84
2019-05-14T03:08:45.064Z,6.84
2019-05-14T03:11:14.986Z,6.79
2019-05-14T03:13:44.620Z,6.03
2019-05-14T03:16:25.930Z,6.03
2019-05-14T03:18:46.083Z,6.77
2019-05-14T03:21:16.066Z,6.73
2019-05-14T03:23:49.621Z,6.73
2019-05-14T03:26:20.671Z,6.63
2019-05-14T03:28:51.412Z,6.64
2019-05-14T03:31:22.781Z,6.67
2019-05-14T03:33:53.357Z,6.71
2019-05-14T03:36:26.877Z,6.73
2019-05-14T03:38:59.194Z,6.74
2019-05-14T03:41:30.684Z,6.74
2019-05-14T03:44:00.374Z,6.75
2019-05-14T03:46:44.735Z,6.69
2019-05-14T03:49:02.161Z,6.69
2019-05-14T03:51:32.047Z,6.76
2019-05-14T03:54:07.416Z,6.84
2019-05-14T03:56:39.876Z,6.87
2019-05-14T03:59:09.956Z,6.87
2019-05-14T04:01:41.922Z,6.85
2019-05-14T04:04:13.723Z,6.79
2019-05-14T04:06:45.430Z,6.85
2019-05-14T04:09:20.215Z,6.85
2019-05-14T04:11:51.423Z,6.92
2019-05-14T04:14:23.732Z,6.96
2019-05-14T04:17:09.279Z,6.96
2019-05-14T04:19:30.082Z,7.00
2019-05-14T04:22:01.162Z,7.01
2019-05-14T04:24:36.450Z,7.00
2019-05-14T04:27:11.503Z,7.08
2019-05-14T04:29:39.608Z,7.10
2019-05-14T04:32:11.057Z,7.13
2019-05-14T04:34:40.882Z,7.13
2019-05-14T04:37:11.026Z,7.18
2019-05-14T04:39:40.829Z,7.18
2019-05-14T04:42:10.499Z,7.34
2019-05-14T04:44:40.775Z,7.34
2019-05-14T04:47:27.843Z,7.50
2019-05-14T04:49:42.688Z,7.54
2019-05-14T04:52:12.341Z,7.54
2019-05-14T04:54:42.092Z,7.60
2019-05-14T04:57:11.904Z,7.74
2019-05-14T04:59:42.474Z,7.74
2019-05-14T05:02:12.114Z,7.82
2019-05-14T05:04:42.585Z,7.84
2019-05-14T05:07:12.844Z,7.86
2019-05-14T05:09:42.806Z,7.86
2019-05-14T05:12:12.427Z,7.88
2019-05-14T05:14:42.475Z,7.93
2019-05-14T05:17:14.239Z,7.31
2019-05-14T05:19:45.952Z,8.03
2019-05-14T05:22:16.217Z,8.13
2019-05-14T05:24:48.469Z,8.22
2019-05-14T05:27:18.622Z,8.31
2019-05-14T05:29:48.929Z,8.41
2019-05-14T05:32:19.365Z,8.50
2019-05-14T05:34:49.482Z,8.62
2019-05-14T05:37:19.517Z,8.69
2019-05-14T05:39:50.282Z,8.81
2019-05-14T05:42:20.259Z,8.93
2019-05-14T05:44:50.151Z,9.04
2019-05-14T05:47:20.097Z,9.27
2019-05-14T05:49:50.097Z,9.27
2019-05-14T05:52:19.985Z,9.36
2019-05-14T05:54:50.556Z,9.47
2019-05-14T05:57:20.936Z,9.58
2019-05-14T05:59:50.704Z,9.68
2019-05-14T06:02:22.020Z,9.84
2019-05-14T06:04:53.985Z,9.84
2019-05-14T06:07:24.793Z,10.16
2019-05-14T06:09:54.522Z,10.16
2019-05-14T06:12:24.488Z,10.31
2019-05-14T06:14:54.740Z,9.76
2019-05-14T06:17:24.750Z,10.59
2019-05-14T06:19:54.252Z,10.59
2019-05-14T06:22:24.203Z,10.70
2019-05-14T06:24:53.777Z,10.76
2019-05-14T06:27:24.738Z,10.88
2019-05-14T06:29:54.707Z,10.94
2019-05-14T06:32:25.099Z,10.95
2019-05-14T06:34:55.614Z,11.00
2019-05-14T06:37:25.400Z,11.07
2019-05-14T06:39:55.009Z,11.11
2019-05-14T06:42:25.160Z,11.16
2019-05-14T06:44:58.605Z,11.19
2019-05-14T06:47:28.960Z,11.20
2019-05-14T06:49:59.354Z,11.29
2019-05-14T06:52:30.017Z,11.35
2019-05-14T06:55:00.524Z,11.42
2019-05-14T06:57:30.810Z,11.52
2019-05-14T07:00:00.950Z,11.63
2019-05-14T07:02:31.571Z,11.75
2019-05-14T07:05:01.455Z,11.73
2019-05-14T07:07:31.180Z,11.85
2019-05-14T07:10:01.279Z,11.93
2019-05-14T07:12:31.743Z,11.98
2019-05-14T07:15:04.540Z,11.99
2019-05-14T07:17:34.705Z,11.90
2019-05-14T07:20:05.310Z,11.95
2019-05-14T07:22:38.924Z,11.82
2019-05-14T07:25:10.087Z,11.86
2019-05-14T07:27:41.390Z,11.94
2019-05-14T07:30:11.833Z,11.98
2019-05-14T07:32:44.127Z,11.94
2019-05-14T07:35:15.383Z,12.02
2019-05-14T07:37:45.800Z,12.08
2019-05-14T07:40:15.852Z,12.11
2019-05-14T07:42:48.567Z,12.13
2019-05-14T07:45:18.489Z,12.40
2019-05-14T07:47:49.973Z,14.11
2019-05-14T07:50:19.825Z,15.69
2019-05-14T07:52:49.865Z,16.24
2019-05-14T07:55:20.706Z,16.39
2019-05-14T07:57:50.802Z,17.63
2019-05-14T08:00:21.419Z,17.37
2019-05-14T08:02:51.343Z,17.42
2019-05-14T08:05:21.714Z,17.67
2019-05-14T08:07:51.735Z,16.39
2019-05-14T08:10:21.984Z,16.17
2019-05-14T08:12:53.097Z,15.45
2019-05-14T08:15:24.395Z,15.19
2019-05-14T08:17:59.047Z,14.60
2019-05-14T08:20:30.450Z,14.46
2019-05-14T08:23:00.460Z,14.73
2019-05-14T08:25:29.995Z,14.47
2019-05-14T08:27:59.540Z,14.53
2019-05-14T08:30:30.515Z,14.62
2019-05-14T08:33:00.496Z,14.66
2019-05-14T08:35:34.107Z,14.51
2019-05-14T08:38:08.141Z,14.28
2019-05-14T08:40:33.186Z,14.20
2019-05-14T08:43:03.229Z,14.08
2019-05-14T08:45:33.141Z,14.50
2019-05-14T08:48:02.909Z,14.32
2019-05-14T08:50:33.464Z,14.27
2019-05-14T08:53:03.036Z,14.29
2019-05-14T08:55:32.592Z,13.89
2019-05-14T08:58:03.172Z,13.88
2019-05-14T09:00:32.791Z,13.74
2019-05-14T09:03:03.232Z,13.84
2019-05-14T09:05:34.211Z,13.52
2019-05-14T09:08:03.977Z,13.22
2019-05-14T09:10:34.059Z,13.12
2019-05-14T09:13:04.259Z,13.28
2019-05-14T09:15:33.734Z,13.40
2019-05-14T09:18:05.759Z,13.28
2019-05-14T09:20:35.503Z,13.36
2019-05-14T09:23:09.539Z,13.16
2019-05-14T09:25:47.262Z,13.37
2019-05-14T09:28:12.001Z,13.25
2019-05-14T09:30:42.199Z,13.50
2019-05-14T09:33:13.791Z,13.62
2019-05-14T09:35:45.283Z,13.57
2019-05-14T09:38:15.132Z,13.76
2019-05-14T09:40:45.305Z,13.66
2019-05-14T09:43:14.985Z,13.44
2019-05-14T09:45:45.537Z,13.42
2019-05-14T09:48:15.347Z,13.43
2019-05-14T09:50:45.296Z,13.41
2019-05-14T09:53:18.024Z,13.36
2019-05-14T09:55:49.127Z,13.38
2019-05-14T09:58:20.241Z,13.31
2019-05-14T10:00:50.592Z,13.38
2019-05-14T10:03:23.452Z,13.38
2019-05-14T10:05:54.607Z,13.71
2019-05-14T10:08:28.375Z,13.93
2019-05-14T10:11:00.227Z,13.86
2019-05-14T10:13:29.531Z,13.60
2019-05-14T10:16:03.624Z,13.76
2019-05-14T10:18:35.376Z,13.56
2019-05-14T10:21:05.049Z,13.66
2019-05-14T10:23:35.334Z,13.70
2019-05-14T10:26:05.302Z,13.84
2019-05-14T10:28:36.418Z,14.00
2019-05-14T10:31:09.185Z,14.36
2019-05-14T10:33:39.062Z,14.22
2019-05-14T10:36:09.239Z,14.14
2019-05-14T10:38:39.044Z,14.37
2019-05-14T10:41:09.638Z,14.38
2019-05-14T10:43:39.565Z,14.25
2019-05-14T10:46:09.326Z,14.26
2019-05-14T10:48:41.236Z,14.33
2019-05-14T10:51:12.894Z,14.47
2019-05-14T10:53:42.855Z,14.51
2019-05-14T10:56:13.029Z,14.41
2019-05-14T10:58:44.667Z,14.03
2019-05-14T11:01:15.219Z,13.96
2019-05-14T11:03:45.279Z,13.94
2019-05-14T11:06:15.181Z,14.22
2019-05-14T11:08:45.172Z,14.31
2019-05-14T11:11:14.695Z,14.14
2019-05-14T11:13:45.454Z,14.23
2019-05-14T11:16:15.370Z,14.57
2019-05-14T11:18:49.264Z,14.58
2019-05-14T11:21:26.039Z,14.49
2019-05-14T11:23:51.684Z,14.57
2019-05-14T11:26:24.739Z,14.48
2019-05-14T11:28:53.737Z,14.53
2019-05-14T11:31:23.939Z,14.37
2019-05-14T11:33:58.886Z,14.08
2019-05-14T11:36:29.605Z,14.20
2019-05-14T11:39:03.724Z,14.31
2019-05-14T11:41:31.895Z,14.15
2019-05-14T11:44:01.938Z,14.41
2019-05-14T11:46:44.397Z,14.21
2019-05-14T11:49:04.944Z,14.22
2019-05-14T11:51:58.735Z,14.38
2019-05-14T11:54:06.197Z,14.22
2019-05-14T11:56:41.968Z,14.16
2019-05-14T11:59:14.202Z,14.18
2019-05-14T12:01:44.756Z,14.03
2019-05-14T12:04:14.924Z,14.32
2019-05-14T12:06:44.838Z,13.99
2019-05-14T12:09:14.860Z,14.02
2019-05-14T12:11:45.098Z,14.33
2019-05-14T12:14:21.097Z,14.18
2019-05-14T12:16:51.903Z,14.29
2019-05-14T12:19:21.951Z,14.26
2019-05-14T12:22:05.769Z,14.54
2019-05-14T12:24:25.218Z,14.32
2019-05-14T12:26:58.437Z,14.10
2019-05-14T12:29:40.184Z,14.10
2019-05-14T12:32:12.913Z,14.09
2019-05-14T12:34:42.646Z,13.39
2019-05-14T12:37:12.303Z,14.23
2019-05-14T12:39:42.322Z,14.17
2019-05-14T12:42:12.384Z,14.22
2019-05-14T12:44:42.616Z,14.29
2019-05-14T12:47:12.651Z,14.33
2019-05-14T12:49:42.419Z,14.35
2019-05-14T12:52:24.579Z,14.28
2019-05-14T12:54:44.523Z,14.50
2019-05-14T12:57:14.271Z,14.51
2019-05-14T12:59:45.840Z,14.52
2019-05-14T13:02:18.538Z,14.74
2019-05-14T13:04:52.368Z,15.05
2019-05-14T13:07:22.467Z,14.86
2019-05-14T13:09:52.329Z,14.21
2019-05-14T13:12:22.247Z,14.69
2019-05-14T13:14:52.491Z,15.03
2019-05-14T13:17:24.454Z,14.68
2019-05-14T13:19:54.140Z,14.68
2019-05-14T13:22:38.390Z,14.64
2019-05-14T13:24:58.122Z,14.31
2019-05-14T13:27:28.809Z,14.08
2019-05-14T13:30:03.141Z,14.31
2019-05-14T13:32:33.037Z,14.34
2019-05-14T13:35:03.435Z,14.51
2019-05-14T13:37:33.507Z,14.21
2019-05-14T13:40:04.780Z,14.44
2019-05-14T13:42:34.971Z,14.49
2019-05-14T13:45:07.036Z,14.66
2019-05-14T13:47:38.688Z,14.41
2019-05-14T13:50:10.191Z,14.57
2019-05-14T13:52:58.205Z,14.74
2019-05-14T13:55:12.064Z,14.64
2019-05-14T13:57:42.470Z,14.72
2019-05-14T14:00:13.714Z,14.98
2019-05-14T14:02:43.705Z,14.74
2019-05-14T14:05:13.714Z,14.88
2019-05-14T14:07:44.783Z,14.76
2019-05-14T14:10:15.163Z,14.98
2019-05-14T14:12:49.835Z,15.07
2019-05-14T14:15:21.276Z,14.94
2019-05-14T14:17:51.575Z,14.98
2019-05-14T14:20:21.272Z,14.77
2019-05-14T14:22:54.282Z,14.90
2019-05-14T14:25:23.728Z,14.73
2019-05-14T14:27:53.946Z,14.80
2019-05-14T14:30:25.445Z,14.93
2019-05-14T14:32:55.188Z,14.88
2019-05-14T14:35:25.156Z,14.80
2019-05-14T14:37:55.308Z,14.64
2019-05-14T14:40:25.393Z,14.74
2019-05-14T14:42:55.161Z,14.88
2019-05-14T14:45:29.018Z,14.82
2019-05-14T14:47:57.516Z,14.64
2019-05-14T14:50:29.087Z,14.86
2019-05-14T14:52:59.845Z,14.20
2019-05-14T14:55:30.759Z,14.76
2019-05-14T14:58:01.476Z,14.92
2019-05-14T15:00:32.283Z,14.69
2019-05-14T15:03:03.854Z,14.63
2019-05-14T15:05:33.926Z,14.80
2019-05-14T15:08:04.742Z,14.57
2019-05-14T15:10:35.338Z,14.55
2019-05-14T15:13:09.107Z,14.39
2019-05-14T15:15:39.681Z,14.70
2019-05-14T15:18:14.016Z,14.03
2019-05-14T15:20:43.450Z,14.72
2019-05-14T15:23:13.370Z,15.11
2019-05-14T15:25:50.073Z,14.91
2019-05-14T15:28:24.093Z,14.83
2019-05-14T15:31:20.729Z,14.64
2019-05-14T15:33:52.789Z,14.50
2019-05-14T15:36:22.738Z,14.53
2019-05-14T15:39:01.780Z,14.63
2019-05-14T15:41:35.280Z,14.61
2019-05-14T15:44:08.823Z,14.59
2019-05-14T15:46:41.810Z,14.70
2019-05-14T15:49:14.254Z,14.78
2019-05-14T15:51:44.917Z,14.48
2019-05-14T15:54:35.264Z,14.20
2019-05-14T15:56:52.310Z,14.32
2019-05-14T15:59:22.723Z,14.48
2019-05-14T16:01:55.353Z,14.50
2019-05-14T16:04:25.361Z,14.54
2019-05-14T16:06:58.475Z,14.50
2019-05-14T16:09:28.935Z,14.20
2019-05-14T16:12:01.779Z,14.37
2019-05-14T16:14:31.875Z,14.33
2019-05-14T16:17:01.623Z,14.24
2019-05-14T16:19:31.873Z,14.23
2019-05-14T16:22:01.880Z,14.22
2019-05-14T16:24:53.094Z,13.97
2019-05-14T16:27:29.596Z,14.11
2019-05-14T16:30:09.809Z,13.89
2019-05-14T16:32:55.649Z,13.82
2019-05-14T16:35:28.685Z,14.10
2019-05-14T16:37:59.193Z,14.20
2019-05-14T16:40:33.369Z,14.06
2019-05-14T16:43:03.342Z,13.84
2019-05-14T16:45:33.583Z,13.88
2019-05-14T16:48:04.158Z,13.78
2019-05-14T16:50:35.571Z,13.86
2019-05-14T16:53:11.686Z,13.80
2019-05-14T16:55:41.919Z,13.62
2019-05-14T16:58:12.453Z,13.48
2019-05-14T17:00:42.989Z,13.28
2019-05-14T17:03:19.309Z,13.28
2019-05-14T17:06:18.718Z,13.19
2019-05-14T17:08:52.839Z,13.00
2019-05-14T17:11:28.350Z,13.22
2019-05-14T17:13:58.656Z,13.37
2019-05-14T17:16:33.329Z,13.36
2019-05-14T17:19:04.027Z,13.29
2019-05-14T17:21:34.987Z,13.21
2019-05-14T17:24:05.577Z,13.25
2019-05-14T17:26:39.754Z,13.25
2019-05-14T17:29:10.323Z,13.31
2019-05-14T17:31:49.384Z,13.27
2019-05-14T17:34:20.375Z,13.29
2019-05-14T17:36:51.180Z,13.28
2019-05-14T17:39:32.005Z,13.32
2019-05-14T17:42:11.442Z,13.14
2019-05-14T17:44:39.514Z,12.82
2019-05-14T17:47:18.410Z,12.68
2019-05-14T17:49:49.854Z,12.72
2019-05-14T17:52:21.923Z,12.83
2019-05-14T17:54:57.477Z,12.74
2019-05-14T17:57:35.247Z,12.77
2019-05-14T18:00:14.516Z,12.89
2019-05-14T18:02:44.698Z,12.96
2019-05-14T18:05:14.586Z,12.91
2019-05-14T18:07:44.713Z,12.96
2019-05-14T18:10:15.340Z,12.92
2019-05-14T18:12:45.125Z,12.94
2019-05-14T18:15:15.706Z,12.97
2019-05-14T18:17:49.367Z,12.96
2019-05-14T18:20:19.577Z,12.94
2019-05-14T18:22:49.527Z,12.97
2019-05-14T18:25:19.314Z,12.75
2019-05-14T18:27:49.905Z,12.76
2019-05-14T18:30:20.733Z,12.53
2019-05-14T18:32:50.633Z,12.52
2019-05-14T18:35:20.412Z,12.58
2019-05-14T18:37:50.546Z,12.44
2019-05-14T18:40:20.455Z,12.41
2019-05-14T18:42:55.429Z,12.23
2019-05-14T18:45:29.265Z,12.31
2019-05-14T18:47:59.200Z,12.06
2019-05-14T18:50:29.396Z,12.04
2019-05-14T18:52:59.911Z,12.17
2019-05-14T18:55:29.719Z,12.21
2019-05-14T18:57:59.754Z,12.11
2019-05-14T19:00:29.803Z,12.32
2019-05-14T19:03:01.427Z,12.15
2019-05-14T19:05:31.455Z,12.14
2019-05-14T19:08:01.425Z,12.07
2019-05-14T19:10:31.043Z,12.09
2019-05-14T19:13:01.821Z,11.99
2019-05-14T19:15:33.927Z,11.85
2019-05-14T19:18:04.212Z,11.91
2019-05-14T19:20:33.844Z,11.92
2019-05-14T19:23:04.274Z,11.80
2019-05-14T19:25:33.976Z,11.61
2019-05-14T19:28:03.968Z,11.53
2019-05-14T19:30:34.293Z,11.65
2019-05-14T19:33:09.239Z,11.71
2019-05-14T19:35:40.449Z,11.71
2019-05-14T19:38:11.129Z,11.80
2019-05-14T19:40:40.492Z,11.75
2019-05-14T19:43:10.270Z,11.55
2019-05-14T19:45:40.458Z,11.50
2019-05-14T19:48:11.388Z,11.59
2019-05-14T19:50:41.586Z,11.64
2019-05-14T19:53:11.694Z,11.68
2019-05-14T19:55:42.074Z,11.74
2019-05-14T19:58:11.974Z,11.76
2019-05-14T20:00:42.106Z,11.71
2019-05-14T20:03:12.126Z,11.74
2019-05-14T20:05:42.879Z,11.72
2019-05-14T20:08:12.545Z,11.67
2019-05-14T20:10:45.063Z,11.49
2019-05-14T20:13:14.559Z,11.35
2019-05-14T20:15:44.686Z,11.31
2019-05-14T20:18:17.572Z,11.26
2019-05-14T20:20:49.255Z,11.25
2019-05-14T20:23:18.972Z,11.20
2019-05-14T20:25:49.962Z,11.12
2019-05-14T20:28:19.507Z,11.06
2019-05-14T20:30:49.593Z,11.01
2019-05-14T20:33:19.944Z,10.98
2019-05-14T20:35:55.897Z,10.98
2019-05-14T20:38:26.372Z,10.99
2019-05-14T20:40:58.102Z,10.94
2019-05-14T20:43:31.047Z,10.91
2019-05-14T20:46:03.106Z,10.90
2019-05-14T20:48:33.168Z,10.86
2019-05-14T20:51:03.843Z,10.81
2019-05-14T20:53:35.013Z,10.76
2019-05-14T20:56:08.172Z,10.71
2019-05-14T20:58:38.834Z,10.64
2019-05-14T21:01:11.462Z,10.58
2019-05-14T21:03:48.324Z,10.62
2019-05-14T21:06:18.740Z,10.60
2019-05-14T21:08:54.514Z,10.58
2019-05-14T21:11:24.469Z,10.58
2019-05-14T21:13:57.965Z,10.60
2019-05-14T21:16:28.412Z,10.59
2019-05-14T21:18:59.674Z,10.67
2019-05-14T21:21:38.392Z,10.78
2019-05-14T21:24:14.432Z,10.86
2019-05-14T21:26:50.126Z,10.85
2019-05-14T21:29:30.764Z,10.84
2019-05-14T21:32:01.773Z,10.81
2019-05-14T21:34:43.492Z,10.86
2019-05-14T21:37:15.234Z,10.87
2019-05-14T21:39:53.268Z,10.86
2019-05-14T21:42:38.134Z,10.79
2019-05-14T21:48:14.511Z,10.73
2019-05-14T21:50:49.959Z,10.72
2019-05-14T21:53:20.061Z,10.65
2019-05-14T21:55:51.775Z,10.66
2019-05-14T21:58:25.901Z,10.57
2019-05-14T22:01:18.817Z,10.54
2019-05-14T22:03:52.623Z,10.58
2019-05-14T22:06:33.631Z,10.51
2019-05-14T22:09:08.722Z,10.46
2019-05-14T22:11:49.629Z,10.35
2019-05-14T22:14:23.501Z,10.30
2019-05-14T22:17:04.005Z,10.30
2019-05-14T22:19:34.154Z,10.32
2019-05-14T22:22:08.689Z,10.33
2019-05-14T22:24:39.456Z,10.35
2019-05-14T22:27:09.554Z,10.28
2019-05-14T22:29:39.517Z,10.20
2019-05-14T22:32:15.051Z,10.13
2019-05-14T22:34:49.189Z,10.01
2019-05-14T22:37:20.316Z,9.96
2019-05-14T22:39:59.035Z,9.90
2019-05-14T22:42:30.230Z,9.82
2019-05-14T22:45:02.537Z,9.72
2019-05-14T22:47:33.551Z,9.64
2019-05-14T22:50:08.987Z,9.64
2019-05-14T22:52:44.118Z,9.60
2019-05-14T22:55:19.203Z,9.60
2019-05-14T22:57:49.647Z,9.56
2019-05-14T23:00:20.999Z,9.48
2019-05-14T23:02:53.178Z,9.43
2019-05-14T23:05:22.974Z,9.43
2019-05-14T23:07:54.677Z,9.42
2019-05-14T23:10:25.313Z,9.38
2019-05-14T23:12:55.375Z,9.38
2019-05-14T23:15:25.279Z,9.35
2019-05-14T23:17:55.017Z,9.34
2019-05-14T23:20:29.293Z,9.35
2019-05-14T23:23:01.817Z,9.29
2019-05-14T23:25:33.776Z,9.15
2019-05-14T23:28:19.235Z,9.13
2019-05-14T23:30:54.716Z,9.10
2019-05-14T23:33:29.262Z,8.98
2019-05-14T23:35:59.584Z,8.94
2019-05-14T23:38:31.336Z,8.87
2019-05-14T23:41:03.648Z,8.87
2019-05-14T23:43:33.541Z,9.00
2019-05-14T23:46:09.227Z,9.03
2019-05-14T23:48:40.530Z,8.98
2019-05-14T23:51:11.060Z,8.94
2019-05-14T23:53:49.495Z,8.92
2019-05-14T23:56:20.953Z,8.85
2019-05-14T23:58:58.375Z,8.85
